Time;durP1;ratioP1;P1;durP2;ratioP2;P2;SDS_P1;SDS_P2;PMS_P1;PMS_P2;Temp;Humidity;BMP_temperature;BMP_pressure;BME280_temperature;BME280_humidity;BME280_pressure;Samples;Min_cycle;Max_cycle;Signal;HPM_P1;HPM_P2
2023/03/06 00:00:18;;;;;;;16.83;10.03;;;2.40;74.30;;;2.07;68.39;97181.28;5096693;28;20449;-77
2023/03/06 00:02:46;;;;;;;14.00;9.37;;;2.50;74.40;;;2.07;68.37;97181.28;5086819;28;20443;-76
2023/03/06 00:05:15;;;;;;;14.07;9.23;;;2.50;74.20;;;1.89;68.62;97173.59;5096653;28;20852;-79
2023/03/06 00:07:43;;;;;;;15.27;9.77;;;2.40;74.40;;;2.19;67.73;97183.50;5103253;27;20449;-72
2023/03/06 00:10:15;;;;;;;17.70;10.07;;;2.50;74.20;;;2.05;68.38;97177.16;5076537;28;20862;-74
2023/03/06 00:12:42;;;;;;;15.20;9.70;;;2.50;74.20;;;1.99;68.39;97162.72;5083907;27;20495;-75
2023/03/06 00:15:10;;;;;;;19.40;11.50;;;2.50;74.20;;;1.86;68.97;97165.16;5088390;27;20534;-75
2023/03/06 00:17:38;;;;;;;17.60;10.77;;;2.40;74.20;;;2.00;68.87;97174.19;5071209;28;20563;-76
2023/03/06 00:20:07;;;;;;;18.87;11.73;;;2.40;74.40;;;1.94;69.13;97165.91;5074568;28;20457;-71
2023/03/06 00:22:35;;;;;;;15.37;10.83;;;2.40;74.80;;;1.91;68.87;97168.09;5072986;28;20555;-75
2023/03/06 00:25:02;;;;;;;15.60;9.60;;;2.40;74.50;;;1.98;68.86;97159.22;5072780;28;20557;-73
2023/03/06 00:27:31;;;;;;;18.37;11.73;;;2.30;74.60;;;1.95;68.71;97162.25;5071666;28;20486;-74
2023/03/06 00:30:00;;;;;;;17.80;10.80;;;2.40;74.50;;;2.04;68.18;97154.16;5074359;28;20465;-74
2023/03/06 00:32:28;;;;;;;17.27;10.10;;;2.40;74.40;;;1.87;68.78;97164.16;5070997;28;20516;-77
2023/03/06 00:34:56;;;;;;;22.63;11.77;;;2.40;74.20;;;1.92;69.19;97146.63;5072989;28;20456;-76
2023/03/06 00:37:25;;;;;;;22.90;13.03;;;2.40;74.40;;;2.02;69.07;97140.19;5071129;28;20635;-73
2023/03/06 00:39:54;;;;;;;22.40;13.00;;;2.40;74.70;;;2.02;68.97;97146.34;5074018;28;20463;-77
2023/03/06 00:42:21;;;;;;;21.20;11.77;;;2.40;74.70;;;2.07;69.02;97135.16;5067199;28;20463;-72
2023/03/06 00:44:48;;;;;;;18.20;12.50;;;2.40;75.00;;;1.96;69.68;97141.75;5080926;27;20452;-75
2023/03/06 00:47:16;;;;;;;22.17;14.33;;;2.30;74.80;;;2.05;68.66;97129.19;5102798;27;20545;-70
2023/03/06 00:49:44;;;;;;;23.43;13.83;;;2.40;74.90;;;1.90;69.54;97138.00;5075473;28;20923;-72
2023/03/06 00:52:12;;;;;;;23.27;14.00;;;2.40;74.80;;;1.81;69.87;97134.53;5094808;28;20459;-72
2023/03/06 00:54:39;;;;;;;18.03;12.93;;;2.30;75.00;;;1.47;69.46;97063.16;5112988;27;20507;-75
2023/03/06 00:57:09;;;;;;;24.80;14.07;;;2.30;74.90;;;1.97;69.22;97120.25;5100770;28;20498;-74
2023/03/06 00:59:36;;;;;;;22.77;13.67;;;2.40;74.90;;;1.97;69.21;97112.25;5105899;28;20451;-74
2023/03/06 01:02:04;;;;;;;21.47;13.07;;;2.40;74.90;;;2.02;68.95;97108.22;5082912;28;20463;-76
2023/03/06 01:04:32;;;;;;;20.87;12.50;;;2.40;74.80;;;2.02;68.92;97109.06;5072942;28;20525;-74
2023/03/06 01:06:59;;;;;;;21.13;12.67;;;2.40;74.90;;;1.89;69.15;97115.00;5081135;28;20451;-76
2023/03/06 01:09:27;;;;;;;21.80;13.13;;;2.40;74.80;;;1.83;69.43;97111.25;5083622;28;20462;-76
2023/03/06 01:11:55;;;;;;;19.70;13.43;;;2.40;74.90;;;1.78;69.97;97112.78;5093993;28;20513;-75
2023/03/06 01:14:24;;;;;;;20.17;11.60;;;2.30;75.00;;;1.87;69.64;97101.03;5091165;28;20457;-74
2023/03/06 01:16:51;;;;;;;19.87;12.03;;;2.30;74.90;;;1.89;69.29;97096.34;5086110;28;20464;-74
2023/03/06 01:19:19;;;;;;;17.60;11.60;;;2.30;74.90;;;1.82;69.83;97098.09;5081789;28;20456;-75
2023/03/06 01:21:46;;;;;;;17.00;11.33;;;2.30;75.00;;;1.86;69.88;97090.56;5078368;28;20494;-76
2023/03/06 01:24:14;;;;;;;18.13;12.33;;;2.20;75.30;;;1.79;70.03;97083.28;5084495;28;20449;-76
2023/03/06 01:26:41;;;;;;;21.53;12.40;;;2.20;75.40;;;1.77;70.34;97076.53;5091061;28;20816;-76
2023/03/06 01:29:08;;;;;;;22.17;13.27;;;2.20;75.50;;;1.74;70.55;97090.19;5089075;28;20459;-75
2023/03/06 01:31:39;;;;;;;16.70;11.27;;;2.20;75.60;;;1.42;70.76;97045.06;5110253;27;20854;-72
2023/03/06 01:34:07;;;;;;;18.90;12.73;;;2.20;75.70;;;1.83;70.31;97081.09;5101111;27;20528;-74
2023/03/06 01:36:34;;;;;;;19.50;11.17;;;2.20;75.80;;;1.80;70.27;97086.81;5090704;28;20664;-75
2023/03/06 01:39:02;;;;;;;20.77;12.47;;;2.20;75.80;;;1.73;70.42;97075.22;5101912;27;20443;-74
2023/03/06 01:41:31;;;;;;;24.70;11.90;;;2.20;75.80;;;1.44;70.31;97018.25;5099211;28;20678;-75
2023/03/06 01:43:58;;;;;;;20.10;13.30;;;2.20;75.90;;;1.68;70.90;97071.25;5081437;28;20548;-72
2023/03/06 01:46:40;;;;;;;22.23;13.80;;;2.20;75.90;;;1.67;70.81;97072.28;5074566;28;20480;-75
2023/03/06 01:49:15;;;;;;;20.57;11.27;;;2.20;76.00;;;1.59;70.58;97040.38;5094257;28;20853;-75
2023/03/06 01:51:49;;;;;;;20.53;12.40;;;2.20;76.10;;;1.82;70.56;97060.81;5087750;28;20506;-75
2023/03/06 01:54:22;;;;;;;25.87;12.93;;;2.20;76.00;;;1.76;70.81;97059.69;5083815;28;20528;-74
2023/03/06 01:56:53;;;;;;;21.10;13.53;;;2.20;76.00;;;1.69;71.11;97051.59;5136505;27;20455;-75
2023/03/06 01:59:22;;;;;;;21.00;12.70;;;2.10;76.20;;;1.77;70.78;97057.88;5087524;28;20471;-72
2023/03/06 02:01:51;;;;;;;22.27;12.67;;;2.10;76.20;;;1.29;71.00;96981.81;5077895;28;20452;-76
2023/03/06 02:04:19;;;;;;;19.37;12.00;;;2.20;76.40;;;1.73;71.18;97053.91;5075820;28;20457;-73
2023/03/06 02:06:47;;;;;;;24.87;13.80;;;2.10;76.30;;;1.72;71.09;97050.44;5069736;28;20917;-71
2023/03/06 02:09:15;;;;;;;19.73;11.97;;;2.10;76.40;;;1.80;70.74;97046.84;5071641;28;20444;-73
2023/03/06 02:11:45;;;;;;;18.63;12.33;;;2.10;76.30;;;1.76;70.72;97035.72;5083862;28;20549;-72
2023/03/06 02:14:14;;;;;;;22.10;13.90;;;2.20;76.40;;;1.55;71.51;97028.47;5101853;27;20455;-74
2023/03/06 02:16:43;;;;;;;23.27;13.27;;;2.10;76.30;;;1.52;71.75;97036.81;5091266;28;20461;-74
2023/03/06 02:19:28;;;;;;;22.73;12.70;;;2.00;76.60;;;1.65;71.57;97034.34;5104565;28;20461;-73
2023/03/06 02:21:55;;;;;;;18.07;13.20;;;2.00;76.80;;;1.56;71.70;97035.44;5112950;28;20443;-70
2023/03/06 02:24:34;;;;;;;18.93;11.73;;;2.10;76.80;;;1.46;71.83;97024.25;5102005;28;20454;-69
2023/03/06 02:27:05;;;;;;;24.50;13.10;;;2.00;77.10;;;1.55;71.94;97023.13;5114473;28;20454;-71
2023/03/06 02:29:33;;;;;;;17.27;11.77;;;2.00;77.10;;;1.49;72.05;97024.69;5112669;28;20454;-74
2023/03/06 02:32:00;;;;;;;19.77;12.80;;;2.00;77.10;;;1.52;72.24;97016.34;5100721;28;21102;-74
2023/03/06 02:35:01;;;;;;;23.63;13.50;;;2.00;77.40;;;1.57;72.05;97009.66;5132545;27;20856;-73
2023/03/06 02:37:29;;;;;;;22.33;12.47;;;2.00;77.10;;;1.56;72.18;97003.47;5096326;28;20508;-75
2023/03/06 02:40:08;;;;;;;19.47;12.03;;;2.00;77.30;;;1.51;72.15;97011.19;5103350;28;20856;-74
2023/03/06 02:42:37;;;;;;;20.63;12.83;;;2.00;77.40;;;1.53;72.20;97011.84;5113633;27;20443;-73
2023/03/06 02:45:07;;;;;;;25.70;13.30;;;1.90;77.60;;;1.65;72.00;96997.06;5086115;28;20455;-74
2023/03/06 02:47:34;;;;;;;21.30;12.73;;;2.00;77.60;;;1.67;71.78;97003.03;5081601;28;20451;-74
2023/03/06 02:50:02;;;;;;;20.33;12.13;;;2.00;77.60;;;1.64;71.90;97006.06;5108652;27;20443;-70
2023/03/06 02:52:29;;;;;;;20.20;12.20;;;2.00;77.40;;;1.72;71.90;96997.16;5074194;28;20451;-74
2023/03/06 02:54:56;;;;;;;25.10;13.77;;;2.00;77.70;;;1.79;71.33;96998.06;5078866;28;20459;-72
2023/03/06 02:57:23;;;;;;;20.10;13.40;;;2.10;77.60;;;1.72;71.52;97001.66;5091445;28;20459;-73
2023/03/06 02:59:52;;;;;;;20.47;12.63;;;2.10;77.50;;;1.55;71.41;96975.22;5099693;27;20461;-75
2023/03/06 03:02:19;;;;;;;19.57;12.77;;;2.10;77.30;;;1.46;71.52;96965.69;5102605;28;20913;-75
2023/03/06 03:04:47;;;;;;;16.43;12.17;;;2.10;77.30;;;1.70;71.78;96994.66;5091398;28;20465;-72
2023/03/06 03:07:14;;;;;;;21.70;13.00;;;2.10;77.30;;;1.65;71.88;96986.41;5078432;28;20455;-71
2023/03/06 03:09:41;;;;;;;24.60;13.00;;;2.00;77.50;;;1.49;72.35;96975.94;5101793;27;20512;-73
2023/03/06 03:12:09;;;;;;;23.00;13.90;;;2.00;77.80;;;1.50;72.27;96977.59;5088386;28;20458;-75
2023/03/06 03:14:36;;;;;;;23.80;13.03;;;2.00;77.90;;;1.52;72.53;96973.75;5102302;28;20446;-75
2023/03/06 03:17:05;;;;;;;20.93;13.20;;;2.00;78.10;;;1.53;72.64;96967.41;5097842;28;20840;-75
2023/03/06 03:19:33;;;;;;;19.47;13.37;;;1.90;78.20;;;1.39;73.13;96966.38;5092842;28;20465;-75
2023/03/06 03:22:00;;;;;;;21.27;13.33;;;1.90;78.30;;;1.40;73.29;96972.56;5085474;28;20463;-74
2023/03/06 03:24:27;;;;;;;21.70;13.83;;;1.90;78.70;;;1.44;73.24;96967.66;5074725;28;21317;-73
2023/03/06 03:26:54;;;;;;;20.43;13.17;;;1.90;78.80;;;1.31;73.42;96971.81;5078678;28;20452;-74
2023/03/06 03:29:22;;;;;;;23.47;13.73;;;1.90;78.80;;;1.34;73.58;96968.78;5105095;27;20783;-75
2023/03/06 03:31:50;;;;;;;20.53;14.27;;;1.90;78.80;;;1.27;73.43;96967.84;5072379;28;20557;-73
2023/03/06 03:34:19;;;;;;;20.40;13.33;;;1.80;79.10;;;1.32;73.42;96959.31;5074026;28;20463;-75
2023/03/06 03:36:46;;;;;;;23.13;13.47;;;1.80;79.30;;;1.24;73.97;96965.53;5070339;28;20452;-72
2023/03/06 03:39:14;;;;;;;20.70;13.13;;;1.70;79.30;;;1.24;74.01;96970.88;5088116;27;20590;-75
2023/03/06 03:41:41;;;;;;;23.40;14.00;;;1.70;79.80;;;1.41;73.60;96960.91;5073796;28;20453;-73
2023/03/06 03:44:09;;;;;;;26.17;14.00;;;1.70;80.00;;;1.48;73.13;96964.47;5073140;28;20472;-71
2023/03/06 03:46:36;;;;;;;20.50;12.60;;;1.80;80.00;;;1.53;73.36;96966.56;5090716;27;21302;-73
2023/03/06 03:49:04;;;;;;;19.43;13.17;;;1.80;79.80;;;1.59;72.94;96960.50;5077266;28;22403;-76
2023/03/06 03:51:33;;;;;;;23.50;13.70;;;1.90;79.50;;;1.56;73.02;96950.22;5072208;28;20460;-73
2023/03/06 03:54:01;;;;;;;22.30;14.13;;;1.90;79.40;;;1.53;73.33;96951.44;5098373;27;21014;-76
2023/03/06 03:56:29;;;;;;;21.07;14.03;;;1.90;79.20;;;1.53;73.17;96947.94;5088517;27;20454;-74
2023/03/06 03:58:56;;;;;;;26.27;14.83;;;1.90;79.30;;;1.59;73.11;96947.19;5074939;28;21199;-69
2023/03/06 04:01:24;;;;;;;23.50;13.30;;;1.90;79.90;;;1.58;73.14;96937.56;5086754;28;20749;-73
2023/03/06 04:03:51;;;;;;;23.53;13.43;;;1.90;79.80;;;1.53;72.99;96924.81;5077784;28;20456;-74
2023/03/06 04:06:19;;;;;;;21.67;13.30;;;1.90;79.20;;;1.53;73.09;96930.16;5082386;28;20914;-73
2023/03/06 04:08:48;;;;;;;25.73;13.83;;;1.80;79.70;;;1.47;73.21;96919.41;5088187;28;20526;-76
2023/03/06 04:11:15;;;;;;;28.40;15.60;;;1.80;80.20;;;1.55;73.21;96937.94;5095387;27;20906;-75
2023/03/06 04:13:42;;;;;;;25.20;14.97;;;1.90;80.10;;;1.45;73.61;96940.06;5074919;28;22352;-74
2023/03/06 04:16:09;;;;;;;21.77;14.00;;;1.90;80.10;;;1.44;73.55;96927.72;5073118;28;20456;-73
2023/03/06 04:18:37;;;;;;;20.87;13.23;;;1.80;79.90;;;1.53;73.29;96923.97;5072209;28;20475;-74
2023/03/06 04:21:05;;;;;;;21.93;13.70;;;1.80;80.30;;;1.56;73.71;96923.59;5069427;28;20923;-75
2023/03/06 04:23:32;;;;;;;22.77;14.70;;;1.90;80.30;;;1.48;73.63;96926.38;5068641;28;20452;-75
2023/03/06 04:26:01;;;;;;;24.20;14.30;;;1.90;80.00;;;1.58;72.77;96924.25;5069061;28;20455;-74
2023/03/06 04:28:28;;;;;;;22.80;13.83;;;1.90;79.80;;;1.29;74.22;96920.59;5081266;28;20464;-75
2023/03/06 04:30:55;;;;;;;23.97;14.27;;;1.80;80.20;;;1.01;73.98;96861.84;5068682;28;20488;-76
2023/03/06 04:33:23;;;;;;;22.30;14.80;;;1.70;80.70;;;1.35;73.78;96919.03;5066728;28;20902;-71
2023/03/06 04:35:50;;;;;;;26.17;15.67;;;1.70;80.70;;;1.41;73.95;96915.63;5068933;28;20463;-74
2023/03/06 04:38:18;;;;;;;26.83;15.97;;;1.80;80.70;;;1.11;73.74;96873.88;5081335;28;20473;-73
2023/03/06 04:40:45;;;;;;;27.13;14.27;;;1.90;80.70;;;1.36;74.22;96918.84;5066014;28;20466;-74
2023/03/06 04:43:14;;;;;;;27.07;15.00;;;1.80;80.50;;;1.34;74.29;96915.53;5067115;28;20479;-73
2023/03/06 04:45:41;;;;;;;23.17;14.53;;;1.80;81.00;;;1.32;74.05;96906.94;5083396;27;20862;-77
2023/03/06 04:48:09;;;;;;;25.03;14.97;;;1.80;80.80;;;1.44;74.06;96904.63;5084801;28;21201;-75
2023/03/06 04:50:37;;;;;;;25.20;14.97;;;1.80;80.80;;;1.27;73.94;96880.00;5084870;28;20844;-77
2023/03/06 04:53:04;;;;;;;22.43;15.67;;;1.80;80.70;;;1.47;74.22;96903.44;5070592;28;20464;-77
2023/03/06 04:55:32;;;;;;;25.13;14.90;;;1.80;81.00;;;1.31;74.42;96894.63;5077154;28;20458;-73
2023/03/06 04:57:59;;;;;;;23.47;15.13;;;1.80;81.00;;;1.38;74.36;96905.38;5082739;28;20470;-74
2023/03/06 05:00:30;;;;;;;26.03;16.03;;;1.70;81.40;;;1.41;74.35;96908.47;5086673;28;20471;-76
2023/03/06 05:02:59;;;;;;;26.40;15.20;;;1.70;81.30;;;1.26;74.81;96886.34;5091352;28;20460;-76
2023/03/06 05:05:26;;;;;;;27.00;16.20;;;1.70;81.60;;;1.47;74.41;96898.09;5083313;28;20555;-76
2023/03/06 05:07:54;;;;;;;28.33;16.60;;;1.80;81.70;;;1.41;74.15;96905.00;5081837;28;20460;-76
2023/03/06 05:10:21;;;;;;;26.50;15.53;;;1.80;81.40;;;1.31;74.60;96894.63;5080499;28;20452;-74
2023/03/06 05:12:49;;;;;;;25.87;16.10;;;1.80;81.30;;;1.32;75.07;96890.97;5077116;28;20457;-76
2023/03/06 05:15:16;;;;;;;27.33;16.93;;;1.70;81.30;;;1.36;74.39;96886.06;5087787;28;20500;-74
2023/03/06 05:17:46;;;;;;;28.50;17.13;;;1.80;81.70;;;1.47;74.17;96892.78;5091039;28;20448;-74
2023/03/06 05:20:15;;;;;;;29.17;17.37;;;1.90;81.40;;;1.29;74.53;96880.69;5082945;28;20452;-75
2023/03/06 05:22:42;;;;;;;27.53;17.60;;;1.80;80.90;;;1.43;74.71;96892.31;5085209;27;20453;-72
2023/03/06 05:25:10;;;;;;;29.13;17.73;;;1.80;81.60;;;1.41;74.35;96892.50;5109578;27;20487;-72
2023/03/06 05:27:38;;;;;;;27.20;17.70;;;1.80;81.20;;;1.09;74.54;96854.59;5075965;28;20456;-75
2023/03/06 05:30:07;;;;;;;31.13;19.27;;;1.70;81.50;;;1.47;74.19;96880.28;5091482;28;20512;-72
2023/03/06 05:32:35;;;;;;;27.67;16.07;;;1.80;81.60;;;1.36;74.70;96888.72;5080499;28;20466;-75
2023/03/06 05:35:05;;;;;;;32.47;17.37;;;1.80;81.70;;;1.51;74.15;96888.72;5110197;27;20472;-76
2023/03/06 05:37:33;;;;;;;30.47;18.90;;;1.80;81.60;;;1.18;75.17;96883.78;5098631;28;20455;-75
2023/03/06 05:40:00;;;;;;;25.23;16.33;;;1.80;81.90;;;1.38;75.06;96878.75;5093831;28;20459;-70
2023/03/06 05:42:27;;;;;;;28.57;17.20;;;1.70;82.10;;;1.54;74.35;96877.69;5095023;28;20455;-70
2023/03/06 05:44:54;;;;;;;29.27;16.53;;;1.80;81.50;;;1.56;73.78;96875.69;5086965;28;20446;-71
2023/03/06 05:47:22;;;;;;;29.13;16.87;;;1.90;81.30;;;1.67;73.58;96877.88;5087509;28;20920;-71
2023/03/06 05:49:49;;;;;;;28.20;17.40;;;2.00;80.90;;;1.59;73.40;96875.31;5097760;28;20477;-68
2023/03/06 05:52:18;;;;;;;29.60;17.93;;;2.00;80.50;;;1.53;73.79;96874.22;5087965;28;20486;-74
2023/03/06 05:54:49;;;;;;;33.93;16.77;;;2.00;80.60;;;1.49;74.23;96875.59;5100021;28;20451;-72
2023/03/06 05:57:19;;;;;;;26.07;17.83;;;1.90;80.80;;;1.58;73.45;96857.69;5110087;28;20499;-72
2023/03/06 05:59:46;;;;;;;28.00;17.40;;;2.00;80.90;;;1.36;73.94;96846.97;5104096;28;20561;-70
2023/03/06 06:02:13;;;;;;;29.33;17.07;;;1.90;80.80;;;1.44;74.21;96859.38;5096976;28;20756;-71
2023/03/06 06:04:41;;;;;;;30.37;17.50;;;2.00;80.80;;;1.50;73.88;96871.09;5074869;28;20467;-73
2023/03/06 06:07:08;;;;;;;28.10;17.43;;;2.00;80.50;;;1.67;73.69;96872.53;5093060;28;20516;-74
2023/03/06 06:09:36;;;;;;;31.50;17.83;;;2.00;81.20;;;1.03;74.27;96801.31;5107250;27;20455;-74
2023/03/06 06:12:04;;;;;;;33.77;17.47;;;2.00;80.70;;;1.42;74.98;96867.53;5077305;28;20475;-69
2023/03/06 06:14:34;;;;;;;28.67;17.63;;;2.00;81.20;;;1.53;74.09;96865.41;5090701;28;20441;-71
2023/03/06 06:17:01;;;;;;;28.90;16.87;;;2.00;80.70;;;1.49;74.20;96854.28;5080195;28;21543;-70
2023/03/06 06:19:30;;;;;;;30.60;18.00;;;2.00;80.60;;;1.50;74.61;96860.47;5073664;28;20468;-72
2023/03/06 06:21:58;;;;;;;30.93;17.30;;;2.00;80.80;;;1.57;73.88;96860.53;5069322;28;20881;-70
2023/03/06 06:24:26;;;;;;;29.13;17.37;;;2.00;80.40;;;1.46;73.88;96830.72;5069598;28;20463;-75
2023/03/06 06:26:57;;;;;;;26.93;18.50;;;2.00;80.50;;;1.78;73.57;96855.25;5068573;28;20468;-70
2023/03/06 06:29:26;;;;;;;31.60;16.80;;;2.20;80.10;;;1.68;73.12;96857.41;5080463;28;20463;-73
2023/03/06 06:31:55;;;;;;;25.10;16.50;;;2.20;79.60;;;1.74;73.19;96855.81;5125779;27;20778;-73
2023/03/06 06:34:24;;;;;;;35.43;17.57;;;2.20;79.60;;;1.63;73.24;96833.16;5094334;28;20451;-74
2023/03/06 06:36:53;;;;;;;26.83;16.70;;;2.20;79.60;;;1.75;72.78;96854.81;5102513;27;20886;-73
2023/03/06 06:39:22;;;;;;;31.43;17.20;;;2.20;79.50;;;1.79;73.10;96856.09;5091883;28;20472;-77
2023/03/06 06:41:50;;;;;;;28.30;17.90;;;2.20;79.60;;;1.95;73.01;96857.69;5093462;28;20451;-73
2023/03/06 06:44:19;;;;;;;30.40;17.47;;;2.30;79.90;;;1.93;72.48;96849.88;5094656;28;20451;-74
2023/03/06 06:46:48;;;;;;;33.00;19.30;;;2.30;79.30;;;1.80;72.68;96850.56;5098158;27;20502;-71
2023/03/06 06:49:17;;;;;;;25.90;17.13;;;2.30;79.10;;;2.07;72.08;96858.84;5077077;28;20453;-71
2023/03/06 06:51:45;;;;;;;28.50;16.93;;;2.40;79.10;;;2.14;71.95;96858.91;5075924;28;22161;-73
2023/03/06 06:54:12;;;;;;;29.03;17.83;;;2.60;78.90;;;2.16;71.90;96862.19;5071812;28;20474;-74
2023/03/06 06:56:39;;;;;;;27.70;16.90;;;2.60;78.50;;;2.31;70.83;96861.31;5080918;28;20505;-70
2023/03/06 06:59:06;;;;;;;25.73;16.00;;;2.70;77.90;;;2.50;70.53;96860.69;5104128;27;20500;-71
2023/03/06 07:01:51;;;;;;;30.90;18.80;;;2.90;77.70;;;2.68;69.92;96870.03;5082781;28;20451;-77
2023/03/06 07:04:19;;;;;;;27.40;17.70;;;3.00;77.40;;;2.73;69.04;96858.78;5092445;28;20486;-71
2023/03/06 07:06:46;;;;;;;30.13;17.30;;;3.10;76.80;;;2.82;68.56;96873.63;5072672;28;20491;-71
2023/03/06 07:09:14;;;;;;;23.83;15.80;;;3.20;76.50;;;2.54;69.75;96871.75;5114631;27;20556;-70
2023/03/06 07:11:41;;;;;;;31.37;18.10;;;3.10;76.40;;;2.19;70.64;96861.81;5077685;28;21091;-72
2023/03/06 07:14:09;;;;;;;29.50;16.80;;;2.90;76.70;;;2.71;68.67;96875.00;5091135;28;21068;-71
2023/03/06 07:16:37;;;;;;;29.40;16.80;;;3.00;76.50;;;2.60;69.21;96875.50;5123510;27;20464;-71
2023/03/06 07:19:05;;;;;;;26.40;17.90;;;3.00;76.30;;;2.58;69.22;96873.06;5096392;28;20901;-70
2023/03/06 07:21:32;;;;;;;34.30;17.67;;;3.10;76.30;;;2.54;69.38;96875.28;5091333;28;20472;-70
2023/03/06 07:23:59;;;;;;;24.03;16.27;;;3.10;76.10;;;2.54;69.64;96869.94;5084951;28;20464;-70
2023/03/06 07:26:29;;;;;;;30.37;17.60;;;3.00;76.00;;;2.46;69.07;96827.41;5074547;28;20457;-70
2023/03/06 07:28:56;;;;;;;26.60;17.50;;;3.10;76.10;;;2.76;68.50;96869.09;5082198;28;20985;-72
2023/03/06 07:31:27;;;;;;;29.40;17.47;;;3.20;75.70;;;2.46;69.49;96874.56;5090306;28;20913;-70
2023/03/06 07:34:05;;;;;;;29.47;16.93;;;3.10;75.70;;;2.94;70.05;96871.25;5077419;28;20460;-75
2023/03/06 07:36:33;;;;;;;37.63;17.23;;;3.30;77.10;;;2.82;68.47;96841.63;5077898;28;20800;-71
2023/03/06 07:39:00;;;;;;;27.30;17.80;;;3.40;76.10;;;3.09;67.69;96865.81;5097249;28;21065;-71
2023/03/06 07:41:27;;;;;;;30.40;18.90;;;3.50;75.90;;;2.94;67.70;96869.41;5084471;28;21024;-70
2023/03/06 07:43:55;;;;;;;30.37;16.40;;;3.50;75.00;;;3.22;67.14;96859.72;5079191;28;20567;-71
2023/03/06 07:46:22;;;;;;;25.93;16.40;;;3.60;75.70;;;2.87;67.86;96870.38;5081753;28;20956;-70
2023/03/06 07:48:50;;;;;;;29.00;16.30;;;3.40;74.80;;;3.15;66.81;96869.53;5081399;28;20459;-70
2023/03/06 07:51:21;;;;;;;24.73;16.10;;;3.50;74.80;;;3.21;66.58;96876.75;5082408;28;20587;-72
2023/03/06 07:53:49;;;;;;;24.10;14.53;;;3.60;74.60;;;3.77;68.72;96872.31;5083378;28;20449;-72
2023/03/06 07:56:17;;;;;;;25.87;15.53;;;3.90;76.50;;;3.48;66.05;96874.22;5086086;28;20458;-70
2023/03/06 07:58:46;;;;;;;25.17;16.57;;;3.90;74.30;;;3.81;67.14;96884.22;5093939;28;20459;-71
2023/03/06 08:01:16;;;;;;;24.77;15.20;;;4.10;75.10;;;3.62;65.12;96873.28;5094815;28;20514;-71
2023/03/06 08:03:44;;;;;;;22.37;15.60;;;4.10;74.10;;;2.93;66.58;96878.44;5102411;27;21156;-70
2023/03/06 08:06:13;;;;;;;26.30;17.03;;;3.60;73.40;;;3.02;66.83;96873.78;5078035;28;20438;-71
2023/03/06 08:08:44;;;;;;;27.30;18.23;;;3.50;74.10;;;3.50;65.38;96870.34;5075387;28;22940;-69
2023/03/06 08:11:12;;;;;;;27.90;17.90;;;3.70;74.00;;;3.23;65.33;96880.03;5075891;28;20808;-70
2023/03/06 08:13:40;;;;;;;26.40;17.27;;;3.80;73.40;;;3.27;65.43;96865.31;5091978;27;21115;-70
2023/03/06 08:16:09;;;;;;;30.10;17.60;;;3.80;73.30;;;3.35;65.54;96878.47;5077860;28;20864;-72
2023/03/06 08:18:38;;;;;;;26.83;15.33;;;3.80;73.20;;;3.11;65.67;96877.94;5070861;28;20436;-68
2023/03/06 08:21:08;;;;;;;22.53;14.80;;;3.80;73.10;;;3.64;64.42;96870.38;5080398;28;20458;-71
2023/03/06 08:23:36;;;;;;;22.50;15.20;;;3.90;72.90;;;4.03;64.03;96878.75;5084018;28;20461;-71
2023/03/06 08:26:07;;;;;;;30.07;15.60;;;4.20;72.70;;;4.34;62.43;96878.19;5069307;28;20455;-71
2023/03/06 08:28:34;;;;;;;24.67;16.37;;;4.50;72.20;;;4.63;61.80;96886.06;5083909;28;20952;-71
2023/03/06 08:31:09;;;;;;;25.60;15.20;;;4.80;71.90;;;4.65;61.51;96875.97;5068616;28;20449;-70
2023/03/06 08:33:36;;;;;;;23.93;14.37;;;4.90;71.20;;;4.43;62.06;96884.16;5070021;28;20486;-71
2023/03/06 08:36:03;;;;;;;21.83;14.43;;;4.80;70.50;;;4.53;60.50;96875.75;5080531;28;20456;-72
2023/03/06 08:38:31;;;;;;;22.67;14.27;;;4.90;70.00;;;4.46;61.16;96880.28;5079774;28;20484;-71
2023/03/06 08:40:58;;;;;;;21.30;14.93;;;4.90;69.60;;;4.82;59.88;96882.56;5099962;27;21880;-68
2023/03/06 08:43:27;;;;;;;23.40;14.73;;;5.10;69.40;;;5.05;58.89;96875.94;5097614;27;20463;-72
2023/03/06 08:45:54;;;;;;;23.80;16.13;;;5.40;68.60;;;4.85;59.76;96880.50;5085792;28;20465;-70
2023/03/06 08:48:21;;;;;;;17.90;12.90;;;5.40;68.10;;;4.89;58.97;96879.88;5087101;27;20499;-71
2023/03/06 08:50:50;;;;;;;23.27;13.70;;;5.40;67.60;;;5.02;58.55;96871.00;5090446;28;20959;-71
2023/03/06 08:53:18;;;;;;;19.70;12.43;;;5.40;67.40;;;5.17;57.45;96884.19;5070534;28;20453;-70
2023/03/06 08:55:45;;;;;;;24.00;13.40;;;5.50;66.60;;;5.05;57.62;96886.66;5080515;28;20555;-69
2023/03/06 08:58:12;;;;;;;18.60;13.37;;;5.50;66.20;;;5.23;57.63;96885.16;5067527;28;21028;-71
2023/03/06 09:00:41;;;;;;;16.20;10.63;;;5.60;66.30;;;5.04;57.38;96882.31;5065901;28;20484;-70
2023/03/06 09:03:10;;;;;;;16.90;11.90;;;5.60;65.60;;;4.90;58.15;96869.97;5078401;28;20515;-72
2023/03/06 09:05:40;;;;;;;19.90;13.07;;;5.40;65.80;;;5.32;57.62;96877.75;5081666;28;20465;-69
2023/03/06 09:08:08;;;;;;;15.37;11.37;;;5.60;65.90;;;5.31;57.07;96889.50;5110071;27;20556;-68
2023/03/06 09:10:35;;;;;;;17.33;12.27;;;5.70;65.00;;;5.23;57.53;96893.19;5075518;28;20485;-66
2023/03/06 09:13:02;;;;;;;23.30;12.80;;;5.70;65.00;;;5.33;57.45;96888.25;5098314;27;20445;-71
2023/03/06 09:15:29;;;;;;;18.00;12.40;;;5.70;65.00;;;5.36;56.92;96892.38;5060196;28;21531;-67
2023/03/06 09:17:58;;;;;;;17.80;11.97;;;5.80;64.90;;;5.68;56.27;96890.59;5059119;28;20445;-68
2023/03/06 09:20:25;;;;;;;19.83;12.63;;;6.00;64.70;;;5.38;57.45;96880.44;5077426;28;21286;-70
2023/03/06 09:22:53;;;;;;;15.93;11.13;;;5.90;64.20;;;4.80;57.70;96884.63;5087796;28;21107;-68
2023/03/06 09:25:22;;;;;;;18.93;12.37;;;5.60;64.10;;;4.58;58.53;96893.84;5072156;28;20516;-70
2023/03/06 09:27:50;;;;;;;21.17;13.17;;;5.40;64.60;;;4.92;58.81;96887.50;5080943;28;22038;-70
2023/03/06 09:30:18;;;;;;;17.33;12.13;;;5.40;65.10;;;4.77;59.77;96878.84;5072980;28;20461;-71
2023/03/06 09:32:45;;;;;;;17.13;13.23;;;5.40;65.50;;;5.20;58.33;96877.56;5085157;28;20459;-67
2023/03/06 09:35:16;;;;;;;16.20;11.87;;;5.50;65.30;;;5.53;57.22;96882.00;5086151;28;20572;-69
2023/03/06 09:37:43;;;;;;;19.90;12.50;;;5.80;64.70;;;5.20;57.24;96870.38;5083977;28;20467;-69
2023/03/06 09:40:19;;;;;;;17.03;13.50;;;5.80;64.40;;;5.51;56.91;96884.06;5094490;28;20690;-69
2023/03/06 09:42:46;;;;;;;19.17;11.73;;;5.90;64.50;;;5.54;56.69;96870.28;5080264;28;20462;-68
2023/03/06 09:45:14;;;;;;;20.90;12.57;;;5.90;64.20;;;5.31;57.19;96876.94;5081943;28;20508;-70
2023/03/06 09:47:50;;;;;;;17.70;12.10;;;5.80;64.20;;;5.36;57.23;96876.31;5080158;28;20471;-68
2023/03/06 09:50:38;;;;;;;18.27;11.53;;;5.80;64.30;;;5.11;57.40;96874.28;5100296;28;20467;-69
2023/03/06 09:53:43;;;;;;;20.77;12.83;;;5.70;64.00;;;4.93;58.08;96875.75;5116186;27;21269;-69
2023/03/06 09:56:18;;;;;;;19.90;12.50;;;5.60;64.10;;;4.99;58.78;96882.13;5069082;28;20453;-69
2023/03/06 09:58:50;;;;;;;17.07;12.47;;;5.50;64.30;;;5.20;57.71;96872.19;5093053;28;20587;-67
2023/03/06 10:01:23;;;;;;;19.67;12.43;;;5.50;64.60;;;5.44;56.41;96869.91;5082493;28;20470;-71
2023/03/06 10:03:55;;;;;;;15.00;11.37;;;5.80;63.90;;;5.16;57.58;96866.47;5074413;28;20465;-68
2023/03/06 10:06:29;;;;;;;19.80;12.10;;;5.80;63.40;;;5.20;57.10;96854.28;5062309;28;20499;-68
2023/03/06 10:09:02;;;;;;;16.47;11.67;;;5.80;63.50;;;5.24;57.12;96879.63;5082462;28;20536;-68
2023/03/06 10:11:37;;;;;;;15.13;11.70;;;5.80;63.30;;;5.04;57.34;96862.78;5071053;28;20457;-69
2023/03/06 10:14:22;;;;;;;16.87;11.63;;;5.70;63.40;;;4.97;57.57;96873.50;5083910;28;20451;-68
2023/03/06 10:16:50;;;;;;;16.80;11.80;;;5.60;63.50;;;4.84;58.46;96879.66;5080376;28;20453;-68
2023/03/06 10:19:20;;;;;;;13.87;10.30;;;5.40;63.90;;;4.58;59.39;96888.50;5087000;28;20463;-74
2023/03/06 10:21:57;;;;;;;17.43;11.27;;;5.10;64.40;;;4.32;59.83;96887.44;5097918;27;20479;-68
2023/03/06 10:24:39;;;;;;;16.83;11.57;;;5.00;64.90;;;4.14;61.30;96886.19;5090157;28;20458;-68
2023/03/06 10:27:20;;;;;;;17.37;11.27;;;4.80;66.00;;;4.24;60.96;96883.09;5119755;27;20465;-68